sensor_id;sensor_type;location;lat;lon;timestamp;P1;durP1;ratioP1;P2;durP2;ratioP2
49051;SDS011;34866;48.670;18.260;2022-07-03T00:01:54;9.80;;;5.35;;
49051;SDS011;34866;48.670;18.260;2022-07-03T00:04:19;9.73;;;5.07;;
49051;SDS011;34866;48.670;18.260;2022-07-03T00:06:45;9.98;;;5.25;;
49051;SDS011;34866;48.670;18.260;2022-07-03T00:09:11;8.98;;;5.20;;
49051;SDS011;34866;48.670;18.260;2022-07-03T00:11:38;14.68;;;5.20;;
49051;SDS011;34866;48.670;18.260;2022-07-03T00:14:04;10.20;;;5.60;;
49051;SDS011;34866;48.670;18.260;2022-07-03T00:16:30;16.63;;;5.53;;
49051;SDS011;34866;48.670;18.260;2022-07-03T00:18:59;10.18;;;5.50;;
49051;SDS011;34866;48.670;18.260;2022-07-03T00:21:27;8.93;;;4.68;;
49051;SDS011;34866;48.670;18.260;2022-07-03T00:24:00;11.23;;;5.65;;
49051;SDS011;34866;48.670;18.260;2022-07-03T00:26:37;11.13;;;6.03;;
49051;SDS011;34866;48.670;18.260;2022-07-03T00:29:06;9.65;;;5.72;;
49051;SDS011;34866;48.670;18.260;2022-07-03T00:31:34;10.40;;;5.80;;
49051;SDS011;34866;48.670;18.260;2022-07-03T00:34:01;11.32;;;6.03;;
49051;SDS011;34866;48.670;18.260;2022-07-03T00:36:29;11.77;;;5.65;;
49051;SDS011;34866;48.670;18.260;2022-07-03T00:38:58;10.10;;;5.30;;
49051;SDS011;34866;48.670;18.260;2022-07-03T00:41:25;11.52;;;5.88;;
49051;SDS011;34866;48.670;18.260;2022-07-03T00:43:53;10.30;;;5.50;;
49051;SDS011;34866;48.670;18.260;2022-07-03T00:46:20;11.73;;;5.20;;
49051;SDS011;34866;48.670;18.260;2022-07-03T00:48:48;12.07;;;6.05;;
49051;SDS011;34866;48.670;18.260;2022-07-03T00:51:15;9.98;;;5.25;;
49051;SDS011;34866;48.670;18.260;2022-07-03T00:53:53;10.13;;;5.30;;
49051;SDS011;34866;48.670;18.260;2022-07-03T00:56:25;9.55;;;5.35;;
49051;SDS011;34866;48.670;18.260;2022-07-03T00:58:53;10.23;;;5.05;;
49051;SDS011;34866;48.670;18.260;2022-07-03T01:01:20;8.75;;;5.15;;
49051;SDS011;34866;48.670;18.260;2022-07-03T01:03:47;10.23;;;5.65;;
49051;SDS011;34866;48.670;18.260;2022-07-03T01:06:17;10.35;;;5.45;;
49051;SDS011;34866;48.670;18.260;2022-07-03T01:08:45;10.02;;;5.25;;
49051;SDS011;34866;48.670;18.260;2022-07-03T01:17:03;9.02;;;4.70;;
49051;SDS011;34866;48.670;18.260;2022-07-03T01:19:50;9.65;;;5.50;;
49051;SDS011;34866;48.670;18.260;2022-07-03T01:27:35;9.90;;;5.80;;
49051;SDS011;34866;48.670;18.260;2022-07-03T01:32:38;10.73;;;5.20;;
49051;SDS011;34866;48.670;18.260;2022-07-03T01:35:11;9.90;;;5.05;;
49051;SDS011;34866;48.670;18.260;2022-07-03T01:37:40;10.85;;;5.03;;
49051;SDS011;34866;48.670;18.260;2022-07-03T01:40:06;9.20;;;4.95;;
49051;SDS011;34866;48.670;18.260;2022-07-03T01:42:33;9.45;;;4.55;;
49051;SDS011;34866;48.670;18.260;2022-07-03T01:45:09;10.32;;;4.95;;
49051;SDS011;34866;48.670;18.260;2022-07-03T01:47:39;10.45;;;5.05;;
49051;SDS011;34866;48.670;18.260;2022-07-03T01:50:07;8.13;;;4.55;;
49051;SDS011;34866;48.670;18.260;2022-07-03T01:52:36;11.13;;;6.55;;
49051;SDS011;34866;48.670;18.260;2022-07-03T01:55:05;8.90;;;4.57;;
49051;SDS011;34866;48.670;18.260;2022-07-03T01:57:45;9.95;;;4.82;;
49051;SDS011;34866;48.670;18.260;2022-07-03T02:00:15;10.57;;;4.90;;
49051;SDS011;34866;48.670;18.260;2022-07-03T02:02:46;8.77;;;5.03;;
49051;SDS011;34866;48.670;18.260;2022-07-03T02:05:33;12.35;;;5.63;;
49051;SDS011;34866;48.670;18.260;2022-07-03T02:08:02;9.35;;;5.15;;
49051;SDS011;34866;48.670;18.260;2022-07-03T02:10:38;11.10;;;5.20;;
49051;SDS011;34866;48.670;18.260;2022-07-03T02:13:28;9.88;;;5.45;;
49051;SDS011;34866;48.670;18.260;2022-07-03T02:15:54;11.45;;;5.15;;
49051;SDS011;34866;48.670;18.260;2022-07-03T02:18:37;10.20;;;4.80;;
49051;SDS011;34866;48.670;18.260;2022-07-03T02:21:14;9.63;;;4.70;;
49051;SDS011;34866;48.670;18.260;2022-07-03T02:24:02;11.35;;;5.75;;
49051;SDS011;34866;48.670;18.260;2022-07-03T02:26:40;9.50;;;4.97;;
49051;SDS011;34866;48.670;18.260;2022-07-03T02:29:09;9.93;;;5.40;;
49051;SDS011;34866;48.670;18.260;2022-07-03T02:31:43;11.25;;;6.00;;
49051;SDS011;34866;48.670;18.260;2022-07-03T02:34:16;10.27;;;5.32;;
49051;SDS011;34866;48.670;18.260;2022-07-03T02:36:46;8.43;;;4.53;;
49051;SDS011;34866;48.670;18.260;2022-07-03T02:39:19;10.15;;;5.70;;
49051;SDS011;34866;48.670;18.260;2022-07-03T02:42:00;12.63;;;5.43;;
49051;SDS011;34866;48.670;18.260;2022-07-03T02:45:03;9.30;;;5.10;;
49051;SDS011;34866;48.670;18.260;2022-07-03T02:47:42;11.15;;;5.50;;
49051;SDS011;34866;48.670;18.260;2022-07-03T02:50:10;12.90;;;5.50;;
49051;SDS011;34866;48.670;18.260;2022-07-03T03:03:33;9.90;;;5.28;;
49051;SDS011;34866;48.670;18.260;2022-07-03T03:06:11;11.73;;;4.72;;
49051;SDS011;34866;48.670;18.260;2022-07-03T03:08:43;11.48;;;5.22;;
49051;SDS011;34866;48.670;18.260;2022-07-03T03:11:19;12.65;;;5.50;;
49051;SDS011;34866;48.670;18.260;2022-07-03T03:14:15;9.60;;;4.75;;
49051;SDS011;34866;48.670;18.260;2022-07-03T03:16:46;8.60;;;5.28;;
49051;SDS011;34866;48.670;18.260;2022-07-03T03:19:21;11.75;;;4.63;;
49051;SDS011;34866;48.670;18.260;2022-07-03T03:21:55;11.90;;;5.70;;
49051;SDS011;34866;48.670;18.260;2022-07-03T03:24:27;11.02;;;4.90;;
49051;SDS011;34866;48.670;18.260;2022-07-03T03:26:55;9.20;;;5.00;;
49051;SDS011;34866;48.670;18.260;2022-07-03T03:29:23;11.00;;;5.25;;
49051;SDS011;34866;48.670;18.260;2022-07-03T03:31:49;9.15;;;5.13;;
49051;SDS011;34866;48.670;18.260;2022-07-03T03:34:15;11.65;;;5.82;;
49051;SDS011;34866;48.670;18.260;2022-07-03T03:36:42;9.50;;;5.22;;
49051;SDS011;34866;48.670;18.260;2022-07-03T03:39:08;9.13;;;5.05;;
49051;SDS011;34866;48.670;18.260;2022-07-03T03:41:34;12.82;;;5.15;;
49051;SDS011;34866;48.670;18.260;2022-07-03T03:44:02;9.73;;;5.13;;
49051;SDS011;34866;48.670;18.260;2022-07-03T03:46:27;12.95;;;5.18;;
49051;SDS011;34866;48.670;18.260;2022-07-03T03:48:53;19.00;;;5.82;;
49051;SDS011;34866;48.670;18.260;2022-07-03T03:51:19;12.98;;;5.35;;
49051;SDS011;34866;48.670;18.260;2022-07-03T03:53:46;10.73;;;6.18;;
49051;SDS011;34866;48.670;18.260;2022-07-03T03:56:12;11.85;;;5.18;;
49051;SDS011;34866;48.670;18.260;2022-07-03T03:58:41;8.48;;;4.80;;
49051;SDS011;34866;48.670;18.260;2022-07-03T04:01:08;11.45;;;5.65;;
49051;SDS011;34866;48.670;18.260;2022-07-03T04:03:35;12.48;;;5.78;;
49051;SDS011;34866;48.670;18.260;2022-07-03T04:06:02;8.45;;;4.35;;
49051;SDS011;34866;48.670;18.260;2022-07-03T04:08:28;11.80;;;5.32;;
49051;SDS011;34866;48.670;18.260;2022-07-03T04:10:54;10.90;;;4.85;;
49051;SDS011;34866;48.670;18.260;2022-07-03T04:13:20;12.20;;;5.97;;
49051;SDS011;34866;48.670;18.260;2022-07-03T04:15:47;12.85;;;5.90;;
49051;SDS011;34866;48.670;18.260;2022-07-03T04:18:14;10.40;;;5.10;;
49051;SDS011;34866;48.670;18.260;2022-07-03T04:20:40;12.82;;;5.90;;
49051;SDS011;34866;48.670;18.260;2022-07-03T04:23:07;11.57;;;5.43;;
49051;SDS011;34866;48.670;18.260;2022-07-03T04:25:34;10.27;;;5.20;;
49051;SDS011;34866;48.670;18.260;2022-07-03T04:28:00;11.82;;;5.20;;
49051;SDS011;34866;48.670;18.260;2022-07-03T04:30:27;9.27;;;5.15;;
49051;SDS011;34866;48.670;18.260;2022-07-03T04:32:53;8.80;;;5.00;;
49051;SDS011;34866;48.670;18.260;2022-07-03T04:35:19;10.15;;;5.28;;
49051;SDS011;34866;48.670;18.260;2022-07-03T04:37:45;10.50;;;5.43;;
49051;SDS011;34866;48.670;18.260;2022-07-03T04:40:12;10.80;;;5.38;;
49051;SDS011;34866;48.670;18.260;2022-07-03T04:42:38;11.23;;;5.50;;
49051;SDS011;34866;48.670;18.260;2022-07-03T04:45:06;11.75;;;5.15;;
49051;SDS011;34866;48.670;18.260;2022-07-03T04:47:32;8.48;;;4.80;;
49051;SDS011;34866;48.670;18.260;2022-07-03T04:49:58;9.30;;;5.00;;
49051;SDS011;34866;48.670;18.260;2022-07-03T04:52:23;9.32;;;4.57;;
49051;SDS011;34866;48.670;18.260;2022-07-03T04:54:49;10.57;;;5.20;;
49051;SDS011;34866;48.670;18.260;2022-07-03T04:57:15;13.30;;;5.57;;
49051;SDS011;34866;48.670;18.260;2022-07-03T04:59:41;14.10;;;5.18;;
49051;SDS011;34866;48.670;18.260;2022-07-03T05:02:07;8.43;;;4.72;;
49051;SDS011;34866;48.670;18.260;2022-07-03T05:04:32;11.93;;;4.95;;
49051;SDS011;34866;48.670;18.260;2022-07-03T05:06:58;14.07;;;5.18;;
49051;SDS011;34866;48.670;18.260;2022-07-03T05:09:24;10.32;;;5.65;;
49051;SDS011;34866;48.670;18.260;2022-07-03T05:11:50;10.10;;;5.55;;
49051;SDS011;34866;48.670;18.260;2022-07-03T05:14:16;9.88;;;4.07;;
49051;SDS011;34866;48.670;18.260;2022-07-03T05:16:42;11.32;;;5.30;;
49051;SDS011;34866;48.670;18.260;2022-07-03T05:19:08;8.20;;;5.18;;
49051;SDS011;34866;48.670;18.260;2022-07-03T05:21:34;8.98;;;4.55;;
49051;SDS011;34866;48.670;18.260;2022-07-03T05:24:00;10.27;;;5.40;;
49051;SDS011;34866;48.670;18.260;2022-07-03T05:26:25;13.25;;;5.47;;
49051;SDS011;34866;48.670;18.260;2022-07-03T05:28:54;9.18;;;4.80;;
49051;SDS011;34866;48.670;18.260;2022-07-03T05:31:20;9.20;;;4.88;;
49051;SDS011;34866;48.670;18.260;2022-07-03T05:33:45;8.77;;;4.35;;
49051;SDS011;34866;48.670;18.260;2022-07-03T05:36:11;13.30;;;5.05;;
49051;SDS011;34866;48.670;18.260;2022-07-03T05:38:37;9.77;;;4.80;;
49051;SDS011;34866;48.670;18.260;2022-07-03T05:43:47;10.35;;;4.60;;
49051;SDS011;34866;48.670;18.260;2022-07-03T05:46:14;9.90;;;4.78;;
49051;SDS011;34866;48.670;18.260;2022-07-03T05:48:39;9.25;;;5.25;;
49051;SDS011;34866;48.670;18.260;2022-07-03T05:51:05;8.82;;;4.72;;
49051;SDS011;34866;48.670;18.260;2022-07-03T05:53:32;8.25;;;4.53;;
49051;SDS011;34866;48.670;18.260;2022-07-03T05:55:58;9.23;;;4.75;;
49051;SDS011;34866;48.670;18.260;2022-07-03T05:58:24;8.73;;;4.72;;
49051;SDS011;34866;48.670;18.260;2022-07-03T06:00:51;8.48;;;4.53;;
49051;SDS011;34866;48.670;18.260;2022-07-03T06:03:25;10.00;;;5.32;;
49051;SDS011;34866;48.670;18.260;2022-07-03T06:05:54;9.15;;;4.68;;
49051;SDS011;34866;48.670;18.260;2022-07-03T06:08:21;9.85;;;5.07;;
49051;SDS011;34866;48.670;18.260;2022-07-03T06:10:49;7.85;;;4.65;;
49051;SDS011;34866;48.670;18.260;2022-07-03T06:13:16;7.70;;;3.92;;
49051;SDS011;34866;48.670;18.260;2022-07-03T06:15:41;7.40;;;4.30;;
49051;SDS011;34866;48.670;18.260;2022-07-03T06:18:07;7.80;;;4.55;;
49051;SDS011;34866;48.670;18.260;2022-07-03T06:20:33;8.23;;;4.40;;
49051;SDS011;34866;48.670;18.260;2022-07-03T06:22:58;8.68;;;4.18;;
49051;SDS011;34866;48.670;18.260;2022-07-03T06:25:24;9.48;;;4.75;;
49051;SDS011;34866;48.670;18.260;2022-07-03T06:27:50;8.27;;;4.68;;
49051;SDS011;34866;48.670;18.260;2022-07-03T06:30:16;9.10;;;4.70;;
49051;SDS011;34866;48.670;18.260;2022-07-03T06:32:44;9.88;;;4.45;;
49051;SDS011;34866;48.670;18.260;2022-07-03T06:35:10;8.05;;;4.43;;
49051;SDS011;34866;48.670;18.260;2022-07-03T06:37:36;7.32;;;4.00;;
49051;SDS011;34866;48.670;18.260;2022-07-03T06:40:02;8.65;;;4.50;;
49051;SDS011;34866;48.670;18.260;2022-07-03T06:42:29;8.10;;;4.05;;
49051;SDS011;34866;48.670;18.260;2022-07-03T06:44:56;7.07;;;4.10;;
49051;SDS011;34866;48.670;18.260;2022-07-03T06:47:22;10.85;;;4.40;;
49051;SDS011;34866;48.670;18.260;2022-07-03T06:49:47;12.13;;;4.50;;
49051;SDS011;34866;48.670;18.260;2022-07-03T06:52:13;9.20;;;4.55;;
49051;SDS011;34866;48.670;18.260;2022-07-03T06:54:45;15.52;;;4.55;;
49051;SDS011;34866;48.670;18.260;2022-07-03T06:57:11;13.43;;;5.50;;
49051;SDS011;34866;48.670;18.260;2022-07-03T06:59:38;8.10;;;4.47;;
49051;SDS011;34866;48.670;18.260;2022-07-03T07:02:04;8.93;;;4.82;;
49051;SDS011;34866;48.670;18.260;2022-07-03T07:04:30;8.70;;;4.82;;
49051;SDS011;34866;48.670;18.260;2022-07-03T07:06:56;7.68;;;4.32;;
49051;SDS011;34866;48.670;18.260;2022-07-03T07:09:21;12.25;;;4.80;;
49051;SDS011;34866;48.670;18.260;2022-07-03T07:11:47;8.50;;;4.70;;
49051;SDS011;34866;48.670;18.260;2022-07-03T07:14:14;9.70;;;4.80;;
49051;SDS011;34866;48.670;18.260;2022-07-03T07:16:41;7.72;;;4.43;;
49051;SDS011;34866;48.670;18.260;2022-07-03T07:19:07;7.68;;;4.20;;
49051;SDS011;34866;48.670;18.260;2022-07-03T07:21:35;11.40;;;4.70;;
49051;SDS011;34866;48.670;18.260;2022-07-03T07:24:02;7.85;;;4.75;;
49051;SDS011;34866;48.670;18.260;2022-07-03T07:26:28;8.60;;;4.70;;
49051;SDS011;34866;48.670;18.260;2022-07-03T07:28:54;8.20;;;4.60;;
49051;SDS011;34866;48.670;18.260;2022-07-03T07:31:20;7.68;;;4.50;;
49051;SDS011;34866;48.670;18.260;2022-07-03T07:33:45;7.53;;;5.03;;
49051;SDS011;34866;48.670;18.260;2022-07-03T07:36:13;7.50;;;4.57;;
49051;SDS011;34866;48.670;18.260;2022-07-03T07:38:39;7.85;;;4.38;;
49051;SDS011;34866;48.670;18.260;2022-07-03T07:41:05;6.88;;;4.13;;
49051;SDS011;34866;48.670;18.260;2022-07-03T07:43:31;7.57;;;4.50;;
49051;SDS011;34866;48.670;18.260;2022-07-03T07:45:57;11.88;;;5.38;;
49051;SDS011;34866;48.670;18.260;2022-07-03T07:48:23;8.88;;;4.63;;
49051;SDS011;34866;48.670;18.260;2022-07-03T07:50:48;9.27;;;4.43;;
49051;SDS011;34866;48.670;18.260;2022-07-03T07:53:15;9.15;;;4.72;;
49051;SDS011;34866;48.670;18.260;2022-07-03T07:55:46;7.50;;;4.13;;
49051;SDS011;34866;48.670;18.260;2022-07-03T07:58:12;8.45;;;4.50;;
49051;SDS011;34866;48.670;18.260;2022-07-03T08:00:40;9.43;;;4.72;;
49051;SDS011;34866;48.670;18.260;2022-07-03T08:03:25;9.23;;;3.97;;
49051;SDS011;34866;48.670;18.260;2022-07-03T08:06:10;7.60;;;4.35;;
49051;SDS011;34866;48.670;18.260;2022-07-03T08:08:41;11.70;;;5.10;;
49051;SDS011;34866;48.670;18.260;2022-07-03T08:11:07;7.97;;;4.13;;
49051;SDS011;34866;48.670;18.260;2022-07-03T08:13:34;7.18;;;4.13;;
49051;SDS011;34866;48.670;18.260;2022-07-03T08:16:00;6.45;;;3.65;;
49051;SDS011;34866;48.670;18.260;2022-07-03T08:18:29;6.55;;;3.85;;
49051;SDS011;34866;48.670;18.260;2022-07-03T08:20:54;9.98;;;3.70;;
49051;SDS011;34866;48.670;18.260;2022-07-03T08:23:29;6.32;;;3.63;;
49051;SDS011;34866;48.670;18.260;2022-07-03T08:25:58;7.35;;;3.85;;
49051;SDS011;34866;48.670;18.260;2022-07-03T08:28:23;7.30;;;3.75;;
49051;SDS011;34866;48.670;18.260;2022-07-03T08:30:49;6.93;;;3.58;;
49051;SDS011;34866;48.670;18.260;2022-07-03T08:33:22;5.53;;;3.53;;
49051;SDS011;34866;48.670;18.260;2022-07-03T08:35:52;6.25;;;3.47;;
49051;SDS011;34866;48.670;18.260;2022-07-03T08:38:23;7.05;;;3.60;;
49051;SDS011;34866;48.670;18.260;2022-07-03T08:41:04;6.55;;;3.92;;
49051;SDS011;34866;48.670;18.260;2022-07-03T08:43:31;6.57;;;3.95;;
49051;SDS011;34866;48.670;18.260;2022-07-03T08:46:08;6.72;;;3.83;;
49051;SDS011;34866;48.670;18.260;2022-07-03T08:48:36;7.82;;;4.20;;
49051;SDS011;34866;48.670;18.260;2022-07-03T08:51:02;6.45;;;3.85;;
49051;SDS011;34866;48.670;18.260;2022-07-03T08:53:28;7.82;;;3.65;;
49051;SDS011;34866;48.670;18.260;2022-07-03T08:55:56;6.13;;;3.55;;
49051;SDS011;34866;48.670;18.260;2022-07-03T08:58:22;6.85;;;3.15;;
49051;SDS011;34866;48.670;18.260;2022-07-03T09:00:48;5.47;;;2.97;;
49051;SDS011;34866;48.670;18.260;2022-07-03T09:03:26;6.25;;;3.58;;
49051;SDS011;34866;48.670;18.260;2022-07-03T09:05:53;6.25;;;3.47;;
49051;SDS011;34866;48.670;18.260;2022-07-03T09:08:20;6.72;;;3.50;;
49051;SDS011;34866;48.670;18.260;2022-07-03T09:10:48;8.15;;;3.75;;
49051;SDS011;34866;48.670;18.260;2022-07-03T09:13:27;5.82;;;3.60;;
49051;SDS011;34866;48.670;18.260;2022-07-03T09:15:54;5.40;;;3.10;;
49051;SDS011;34866;48.670;18.260;2022-07-03T09:18:35;6.13;;;3.22;;
49051;SDS011;34866;48.670;18.260;2022-07-03T09:21:05;11.23;;;3.47;;
49051;SDS011;34866;48.670;18.260;2022-07-03T09:23:41;5.97;;;3.40;;
49051;SDS011;34866;48.670;18.260;2022-07-03T09:26:12;6.07;;;3.50;;
49051;SDS011;34866;48.670;18.260;2022-07-03T09:28:51;9.07;;;3.30;;
49051;SDS011;34866;48.670;18.260;2022-07-03T09:31:18;5.95;;;3.22;;
49051;SDS011;34866;48.670;18.260;2022-07-03T09:33:53;5.53;;;3.22;;
49051;SDS011;34866;48.670;18.260;2022-07-03T09:36:20;7.47;;;3.40;;
49051;SDS011;34866;48.670;18.260;2022-07-03T09:38:48;6.30;;;3.65;;
49051;SDS011;34866;48.670;18.260;2022-07-03T09:41:15;5.30;;;3.22;;
49051;SDS011;34866;48.670;18.260;2022-07-03T09:43:43;7.72;;;3.55;;
49051;SDS011;34866;48.670;18.260;2022-07-03T09:46:09;6.78;;;3.42;;
49051;SDS011;34866;48.670;18.260;2022-07-03T09:53:55;8.60;;;3.30;;
49051;SDS011;34866;48.670;18.260;2022-07-03T09:56:43;5.80;;;3.30;;
49051;SDS011;34866;48.670;18.260;2022-07-03T10:01:41;8.70;;;2.95;;
49051;SDS011;34866;48.670;18.260;2022-07-03T10:04:13;5.55;;;3.35;;
49051;SDS011;34866;48.670;18.260;2022-07-03T10:07:00;6.45;;;3.15;;
49051;SDS011;34866;48.670;18.260;2022-07-03T10:11:53;9.48;;;3.00;;
49051;SDS011;34866;48.670;18.260;2022-07-03T10:14:20;7.82;;;3.25;;
49051;SDS011;34866;48.670;18.260;2022-07-03T10:16:51;6.80;;;3.20;;
49051;SDS011;34866;48.670;18.260;2022-07-03T10:19:20;6.80;;;2.85;;
49051;SDS011;34866;48.670;18.260;2022-07-03T10:21:51;4.93;;;2.83;;
49051;SDS011;34866;48.670;18.260;2022-07-03T10:24:18;5.40;;;2.88;;
49051;SDS011;34866;48.670;18.260;2022-07-03T10:26:58;5.50;;;2.80;;
49051;SDS011;34866;48.670;18.260;2022-07-03T10:29:25;6.07;;;3.00;;
49051;SDS011;34866;48.670;18.260;2022-07-03T10:31:51;5.47;;;2.53;;
49051;SDS011;34866;48.670;18.260;2022-07-03T10:34:18;4.43;;;1.90;;
49051;SDS011;34866;48.670;18.260;2022-07-03T10:37:04;6.38;;;2.90;;
49051;SDS011;34866;48.670;18.260;2022-07-03T10:42:10;3.25;;;1.70;;
49051;SDS011;34866;48.670;18.260;2022-07-03T10:45:06;3.38;;;1.30;;
49051;SDS011;34866;48.670;18.260;2022-07-03T10:47:47;3.95;;;1.80;;
49051;SDS011;34866;48.670;18.260;2022-07-03T10:50:17;4.82;;;1.95;;
49051;SDS011;34866;48.670;18.260;2022-07-03T10:52:45;6.40;;;2.10;;
49051;SDS011;34866;48.670;18.260;2022-07-03T10:55:14;6.57;;;2.00;;
49051;SDS011;34866;48.670;18.260;2022-07-03T10:57:41;5.03;;;2.35;;
49051;SDS011;34866;48.670;18.260;2022-07-03T11:00:18;3.70;;;1.95;;
49051;SDS011;34866;48.670;18.260;2022-07-03T11:02:49;3.83;;;1.75;;
49051;SDS011;34866;48.670;18.260;2022-07-03T11:05:21;4.03;;;2.22;;
49051;SDS011;34866;48.670;18.260;2022-07-03T11:23:33;6.07;;;2.35;;
49051;SDS011;34866;48.670;18.260;2022-07-03T11:26:27;4.88;;;2.42;;
49051;SDS011;34866;48.670;18.260;2022-07-03T11:28:54;4.85;;;2.28;;
49051;SDS011;34866;48.670;18.260;2022-07-03T11:31:21;5.05;;;2.50;;
49051;SDS011;34866;48.670;18.260;2022-07-03T11:41:25;5.25;;;2.63;;
49051;SDS011;34866;48.670;18.260;2022-07-03T11:43:54;4.70;;;2.85;;
49051;SDS011;34866;48.670;18.260;2022-07-03T11:46:29;4.72;;;2.85;;
49051;SDS011;34866;48.670;18.260;2022-07-03T11:51:34;4.45;;;2.45;;
49051;SDS011;34866;48.670;18.260;2022-07-03T11:54:00;7.55;;;2.22;;
49051;SDS011;34866;48.670;18.260;2022-07-03T11:56:27;5.70;;;2.65;;
49051;SDS011;34866;48.670;18.260;2022-07-03T11:58:55;6.95;;;2.25;;
49051;SDS011;34866;48.670;18.260;2022-07-03T12:06:43;4.72;;;2.30;;
49051;SDS011;34866;48.670;18.260;2022-07-03T12:09:12;4.65;;;2.05;;
49051;SDS011;34866;48.670;18.260;2022-07-03T12:12:02;4.35;;;2.17;;
49051;SDS011;34866;48.670;18.260;2022-07-03T12:17:18;4.82;;;2.30;;
49051;SDS011;34866;48.670;18.260;2022-07-03T12:19:50;5.20;;;2.10;;
49051;SDS011;34866;48.670;18.260;2022-07-03T12:22:30;5.50;;;1.92;;
49051;SDS011;34866;48.670;18.260;2022-07-03T12:25:03;3.58;;;2.00;;
49051;SDS011;34866;48.670;18.260;2022-07-03T12:27:34;7.88;;;2.17;;
49051;SDS011;34866;48.670;18.260;2022-07-03T12:30:02;5.40;;;2.28;;
49051;SDS011;34866;48.670;18.260;2022-07-03T12:32:33;3.83;;;1.98;;
49051;SDS011;34866;48.670;18.260;2022-07-03T12:34:59;3.60;;;1.88;;
49051;SDS011;34866;48.670;18.260;2022-07-03T12:37:36;3.67;;;1.95;;
49051;SDS011;34866;48.670;18.260;2022-07-03T12:40:09;4.30;;;2.00;;
49051;SDS011;34866;48.670;18.260;2022-07-03T12:42:46;4.18;;;2.30;;
49051;SDS011;34866;48.670;18.260;2022-07-03T12:45:14;4.18;;;1.85;;
49051;SDS011;34866;48.670;18.260;2022-07-03T12:47:59;4.25;;;2.17;;
49051;SDS011;34866;48.670;18.260;2022-07-03T12:50:42;4.85;;;2.20;;
49051;SDS011;34866;48.670;18.260;2022-07-03T12:56:08;4.72;;;2.35;;
49051;SDS011;34866;48.670;18.260;2022-07-03T12:58:54;3.72;;;1.92;;
49051;SDS011;34866;48.670;18.260;2022-07-03T13:02:11;4.07;;;2.03;;
49051;SDS011;34866;48.670;18.260;2022-07-03T13:04:36;5.65;;;1.80;;
49051;SDS011;34866;48.670;18.260;2022-07-03T13:07:06;5.95;;;2.00;;
49051;SDS011;34866;48.670;18.260;2022-07-03T13:09:35;4.28;;;2.00;;
49051;SDS011;34866;48.670;18.260;2022-07-03T13:18:17;4.43;;;2.42;;
49051;SDS011;34866;48.670;18.260;2022-07-03T13:20:31;4.35;;;2.10;;
49051;SDS011;34866;48.670;18.260;2022-07-03T13:23:02;3.95;;;2.30;;
49051;SDS011;34866;48.670;18.260;2022-07-03T13:25:47;5.10;;;2.33;;
49051;SDS011;34866;48.670;18.260;2022-07-03T13:28:13;4.82;;;2.40;;
49051;SDS011;34866;48.670;18.260;2022-07-03T13:30:41;5.68;;;2.42;;
49051;SDS011;34866;48.670;18.260;2022-07-03T13:38:39;4.20;;;2.10;;
49051;SDS011;34866;48.670;18.260;2022-07-03T13:41:17;4.22;;;2.10;;
49051;SDS011;34866;48.670;18.260;2022-07-03T13:43:47;3.95;;;2.20;;
49051;SDS011;34866;48.670;18.260;2022-07-03T13:46:22;5.43;;;2.38;;
49051;SDS011;34866;48.670;18.260;2022-07-03T13:48:54;4.95;;;1.90;;
49051;SDS011;34866;48.670;18.260;2022-07-03T13:51:23;4.80;;;2.58;;
49051;SDS011;34866;48.670;18.260;2022-07-03T13:53:57;4.03;;;2.35;;
49051;SDS011;34866;48.670;18.260;2022-07-03T13:56:54;4.18;;;2.08;;
49051;SDS011;34866;48.670;18.260;2022-07-03T13:59:20;4.05;;;1.98;;
49051;SDS011;34866;48.670;18.260;2022-07-03T14:01:47;6.60;;;2.72;;
49051;SDS011;34866;48.670;18.260;2022-07-03T14:04:33;4.22;;;2.42;;
49051;SDS011;34866;48.670;18.260;2022-07-03T14:06:59;3.78;;;2.22;;
49051;SDS011;34866;48.670;18.260;2022-07-03T14:09:25;8.95;;;2.60;;
49051;SDS011;34866;48.670;18.260;2022-07-03T14:11:56;4.00;;;2.17;;
49051;SDS011;34866;48.670;18.260;2022-07-03T14:14:45;4.72;;;2.53;;
49051;SDS011;34866;48.670;18.260;2022-07-03T14:17:11;4.85;;;2.40;;
49051;SDS011;34866;48.670;18.260;2022-07-03T14:19:36;3.05;;;1.67;;
49051;SDS011;34866;48.670;18.260;2022-07-03T14:22:04;3.47;;;1.70;;
49051;SDS011;34866;48.670;18.260;2022-07-03T14:24:29;7.25;;;1.90;;
49051;SDS011;34866;48.670;18.260;2022-07-03T14:26:55;5.35;;;1.67;;
49051;SDS011;34866;48.670;18.260;2022-07-03T14:29:42;4.10;;;1.75;;
49051;SDS011;34866;48.670;18.260;2022-07-03T14:32:59;3.28;;;1.75;;
49051;SDS011;34866;48.670;18.260;2022-07-03T14:36:08;5.22;;;1.80;;
49051;SDS011;34866;48.670;18.260;2022-07-03T14:38:34;3.10;;;1.50;;
49051;SDS011;34866;48.670;18.260;2022-07-03T14:40:59;2.92;;;1.60;;
49051;SDS011;34866;48.670;18.260;2022-07-03T14:43:25;6.10;;;1.30;;
49051;SDS011;34866;48.670;18.260;2022-07-03T14:45:51;4.13;;;1.60;;
49051;SDS011;34866;48.670;18.260;2022-07-03T14:48:17;4.10;;;1.50;;
49051;SDS011;34866;48.670;18.260;2022-07-03T14:50:45;3.25;;;1.83;;
49051;SDS011;34866;48.670;18.260;2022-07-03T14:53:11;3.22;;;1.38;;
49051;SDS011;34866;48.670;18.260;2022-07-03T14:55:39;7.30;;;1.50;;
49051;SDS011;34866;48.670;18.260;2022-07-03T14:58:13;3.80;;;1.73;;
49051;SDS011;34866;48.670;18.260;2022-07-03T15:00:48;3.17;;;1.50;;
49051;SDS011;34866;48.670;18.260;2022-07-03T15:06:00;2.95;;;1.20;;
49051;SDS011;34866;48.670;18.260;2022-07-03T15:08:46;3.75;;;2.03;;
49051;SDS011;34866;48.670;18.260;2022-07-03T15:11:21;3.05;;;1.52;;
49051;SDS011;34866;48.670;18.260;2022-07-03T15:14:11;4.65;;;1.40;;
49051;SDS011;34866;48.670;18.260;2022-07-03T15:16:38;6.15;;;1.95;;
49051;SDS011;34866;48.670;18.260;2022-07-03T15:19:07;3.22;;;1.77;;
49051;SDS011;34866;48.670;18.260;2022-07-03T15:21:34;4.30;;;1.55;;
49051;SDS011;34866;48.670;18.260;2022-07-03T15:24:02;3.15;;;1.85;;
49051;SDS011;34866;48.670;18.260;2022-07-03T15:26:31;3.92;;;1.63;;
49051;SDS011;34866;48.670;18.260;2022-07-03T15:28:58;3.80;;;1.85;;
49051;SDS011;34866;48.670;18.260;2022-07-03T15:31:26;3.90;;;1.90;;
49051;SDS011;34866;48.670;18.260;2022-07-03T15:33:57;2.85;;;1.35;;
49051;SDS011;34866;48.670;18.260;2022-07-03T15:36:27;7.68;;;2.00;;
49051;SDS011;34866;48.670;18.260;2022-07-03T15:39:03;5.72;;;1.65;;
49051;SDS011;34866;48.670;18.260;2022-07-03T15:50:00;4.13;;;1.48;;
49051;SDS011;34866;48.670;18.260;2022-07-03T15:52:29;3.03;;;1.63;;
49051;SDS011;34866;48.670;18.260;2022-07-03T15:55:05;4.28;;;1.70;;
49051;SDS011;34866;48.670;18.260;2022-07-03T15:57:39;4.25;;;1.70;;
49051;SDS011;34866;48.670;18.260;2022-07-03T16:00:09;3.42;;;1.83;;
49051;SDS011;34866;48.670;18.260;2022-07-03T16:05:17;5.90;;;1.70;;
49051;SDS011;34866;48.670;18.260;2022-07-03T16:10:35;3.25;;;1.50;;
49051;SDS011;34866;48.670;18.260;2022-07-03T16:13:04;4.35;;;1.98;;
49051;SDS011;34866;48.670;18.260;2022-07-03T16:15:36;4.72;;;1.85;;
49051;SDS011;34866;48.670;18.260;2022-07-03T16:18:05;4.55;;;2.40;;
49051;SDS011;34866;48.670;18.260;2022-07-03T16:20:47;3.15;;;1.45;;
49051;SDS011;34866;48.670;18.260;2022-07-03T16:23:20;3.40;;;1.50;;
49051;SDS011;34866;48.670;18.260;2022-07-03T16:25:48;4.45;;;1.55;;
49051;SDS011;34866;48.670;18.260;2022-07-03T16:28:17;3.45;;;1.70;;
49051;SDS011;34866;48.670;18.260;2022-07-03T16:30:47;4.18;;;1.77;;
49051;SDS011;34866;48.670;18.260;2022-07-03T16:33:26;3.90;;;1.70;;
49051;SDS011;34866;48.670;18.260;2022-07-03T16:36:02;5.57;;;2.17;;